sensor_id;sensor_type;location;lat;lon;timestamp;P1;durP1;ratioP1;P2;durP2;ratioP2
19867;SDS011;10096;51.112;6.776;2023-08-07T00:01:49;5.68;;;3.50;;
19867;SDS011;10096;51.112;6.776;2023-08-07T00:04:17;8.43;;;3.53;;
19867;SDS011;10096;51.112;6.776;2023-08-07T00:06:45;7.78;;;3.47;;
19867;SDS011;10096;51.112;6.776;2023-08-07T00:09:12;10.45;;;3.92;;
19867;SDS011;10096;51.112;6.776;2023-08-07T00:11:39;6.53;;;3.53;;
19867;SDS011;10096;51.112;6.776;2023-08-07T00:14:06;8.95;;;4.72;;
19867;SDS011;10096;51.112;6.776;2023-08-07T00:16:33;11.00;;;4.10;;
19867;SDS011;10096;51.112;6.776;2023-08-07T00:19:01;10.18;;;3.97;;
19867;SDS011;10096;51.112;6.776;2023-08-07T00:21:30;11.13;;;4.03;;
19867;SDS011;10096;51.112;6.776;2023-08-07T00:23:57;8.52;;;3.92;;
19867;SDS011;10096;51.112;6.776;2023-08-07T00:26:25;8.32;;;3.60;;
19867;SDS011;10096;51.112;6.776;2023-08-07T00:28:51;8.23;;;3.58;;
19867;SDS011;10096;51.112;6.776;2023-08-07T00:31:18;8.82;;;3.30;;
19867;SDS011;10096;51.112;6.776;2023-08-07T00:33:45;7.80;;;4.00;;
19867;SDS011;10096;51.112;6.776;2023-08-07T00:36:16;6.82;;;3.63;;
19867;SDS011;10096;51.112;6.776;2023-08-07T00:38:45;6.10;;;3.72;;
19867;SDS011;10096;51.112;6.776;2023-08-07T00:41:12;7.57;;;3.78;;
19867;SDS011;10096;51.112;6.776;2023-08-07T00:43:39;7.95;;;3.55;;
19867;SDS011;10096;51.112;6.776;2023-08-07T00:46:06;8.20;;;3.25;;
19867;SDS011;10096;51.112;6.776;2023-08-07T00:48:33;6.90;;;3.20;;
19867;SDS011;10096;51.112;6.776;2023-08-07T00:51:00;10.70;;;3.50;;
19867;SDS011;10096;51.112;6.776;2023-08-07T00:53:28;7.53;;;3.13;;
19867;SDS011;10096;51.112;6.776;2023-08-07T00:55:56;8.02;;;3.38;;
19867;SDS011;10096;51.112;6.776;2023-08-07T00:58:24;8.88;;;3.53;;
19867;SDS011;10096;51.112;6.776;2023-08-07T01:00:51;7.82;;;3.60;;
19867;SDS011;10096;51.112;6.776;2023-08-07T01:03:18;10.23;;;4.00;;
19867;SDS011;10096;51.112;6.776;2023-08-07T01:05:45;8.77;;;4.13;;
19867;SDS011;10096;51.112;6.776;2023-08-07T01:08:12;6.35;;;3.67;;
19867;SDS011;10096;51.112;6.776;2023-08-07T01:10:41;8.18;;;3.70;;
19867;SDS011;10096;51.112;6.776;2023-08-07T01:13:22;8.68;;;4.07;;
19867;SDS011;10096;51.112;6.776;2023-08-07T01:15:55;9.80;;;4.43;;
19867;SDS011;10096;51.112;6.776;2023-08-07T01:18:32;11.35;;;3.92;;
19867;SDS011;10096;51.112;6.776;2023-08-07T01:21:01;9.52;;;4.03;;
19867;SDS011;10096;51.112;6.776;2023-08-07T01:23:32;16.25;;;4.82;;
19867;SDS011;10096;51.112;6.776;2023-08-07T01:25:59;9.50;;;4.63;;
19867;SDS011;10096;51.112;6.776;2023-08-07T01:28:27;8.15;;;4.60;;
19867;SDS011;10096;51.112;6.776;2023-08-07T01:30:59;8.90;;;4.47;;
19867;SDS011;10096;51.112;6.776;2023-08-07T01:33:31;11.00;;;4.50;;
19867;SDS011;10096;51.112;6.776;2023-08-07T01:36:05;11.43;;;5.28;;
19867;SDS011;10096;51.112;6.776;2023-08-07T01:38:34;10.98;;;4.70;;
19867;SDS011;10096;51.112;6.776;2023-08-07T01:41:03;11.45;;;5.20;;
19867;SDS011;10096;51.112;6.776;2023-08-07T01:43:30;10.75;;;4.90;;
19867;SDS011;10096;51.112;6.776;2023-08-07T01:45:58;8.05;;;4.60;;
19867;SDS011;10096;51.112;6.776;2023-08-07T01:48:25;11.35;;;5.10;;
19867;SDS011;10096;51.112;6.776;2023-08-07T01:50:52;11.07;;;5.20;;
19867;SDS011;10096;51.112;6.776;2023-08-07T01:53:20;8.65;;;4.50;;
19867;SDS011;10096;51.112;6.776;2023-08-07T01:55:48;14.30;;;5.07;;
19867;SDS011;10096;51.112;6.776;2023-08-07T01:58:15;11.15;;;4.55;;
19867;SDS011;10096;51.112;6.776;2023-08-07T02:00:42;11.43;;;5.05;;
19867;SDS011;10096;51.112;6.776;2023-08-07T02:03:09;8.65;;;4.68;;
19867;SDS011;10096;51.112;6.776;2023-08-07T02:05:36;11.90;;;5.13;;
19867;SDS011;10096;51.112;6.776;2023-08-07T02:08:03;14.50;;;5.45;;
19867;SDS011;10096;51.112;6.776;2023-08-07T02:10:30;8.80;;;4.72;;
19867;SDS011;10096;51.112;6.776;2023-08-07T02:12:58;10.50;;;4.45;;
19867;SDS011;10096;51.112;6.776;2023-08-07T02:15:25;7.63;;;4.70;;
19867;SDS011;10096;51.112;6.776;2023-08-07T02:17:52;8.00;;;4.45;;
19867;SDS011;10096;51.112;6.776;2023-08-07T02:20:19;9.00;;;4.40;;
19867;SDS011;10096;51.112;6.776;2023-08-07T02:22:46;8.13;;;4.88;;
19867;SDS011;10096;51.112;6.776;2023-08-07T02:25:13;7.93;;;4.45;;
19867;SDS011;10096;51.112;6.776;2023-08-07T02:27:40;8.57;;;4.55;;
19867;SDS011;10096;51.112;6.776;2023-08-07T02:30:09;8.25;;;4.15;;
19867;SDS011;10096;51.112;6.776;2023-08-07T02:32:37;6.15;;;4.28;;
19867;SDS011;10096;51.112;6.776;2023-08-07T02:35:06;6.63;;;3.55;;
19867;SDS011;10096;51.112;6.776;2023-08-07T02:37:33;7.47;;;3.88;;
19867;SDS011;10096;51.112;6.776;2023-08-07T02:40:00;7.47;;;3.70;;
19867;SDS011;10096;51.112;6.776;2023-08-07T02:42:27;7.68;;;3.30;;
19867;SDS011;10096;51.112;6.776;2023-08-07T02:44:54;7.05;;;3.78;;
19867;SDS011;10096;51.112;6.776;2023-08-07T02:47:23;8.25;;;4.07;;
19867;SDS011;10096;51.112;6.776;2023-08-07T02:49:49;10.68;;;4.07;;
19867;SDS011;10096;51.112;6.776;2023-08-07T02:52:16;7.47;;;4.18;;
19867;SDS011;10096;51.112;6.776;2023-08-07T02:54:43;9.73;;;3.92;;
19867;SDS011;10096;51.112;6.776;2023-08-07T02:57:10;9.77;;;4.32;;
19867;SDS011;10096;51.112;6.776;2023-08-07T02:59:37;9.07;;;4.00;;
19867;SDS011;10096;51.112;6.776;2023-08-07T03:02:04;10.73;;;4.20;;
19867;SDS011;10096;51.112;6.776;2023-08-07T03:04:33;7.97;;;4.15;;
19867;SDS011;10096;51.112;6.776;2023-08-07T03:07:00;9.93;;;4.90;;
19867;SDS011;10096;51.112;6.776;2023-08-07T03:09:27;13.02;;;4.75;;
19867;SDS011;10096;51.112;6.776;2023-08-07T03:11:54;6.97;;;3.95;;
19867;SDS011;10096;51.112;6.776;2023-08-07T03:14:21;7.20;;;3.83;;
19867;SDS011;10096;51.112;6.776;2023-08-07T03:16:48;6.55;;;4.63;;
19867;SDS011;10096;51.112;6.776;2023-08-07T03:19:15;8.85;;;4.47;;
19867;SDS011;10096;51.112;6.776;2023-08-07T03:21:43;9.07;;;4.25;;
19867;SDS011;10096;51.112;6.776;2023-08-07T03:24:10;10.23;;;4.55;;
19867;SDS011;10096;51.112;6.776;2023-08-07T03:26:37;10.45;;;4.57;;
19867;SDS011;10096;51.112;6.776;2023-08-07T03:29:05;11.43;;;4.57;;
19867;SDS011;10096;51.112;6.776;2023-08-07T03:31:32;12.15;;;4.43;;
19867;SDS011;10096;51.112;6.776;2023-08-07T03:33:59;7.90;;;4.40;;
19867;SDS011;10096;51.112;6.776;2023-08-07T03:36:26;11.82;;;4.70;;
19867;SDS011;10096;51.112;6.776;2023-08-07T03:38:55;9.38;;;4.38;;
19867;SDS011;10096;51.112;6.776;2023-08-07T03:41:21;9.70;;;4.53;;
19867;SDS011;10096;51.112;6.776;2023-08-07T03:43:49;13.20;;;5.85;;
19867;SDS011;10096;51.112;6.776;2023-08-07T03:46:16;10.23;;;4.93;;
19867;SDS011;10096;51.112;6.776;2023-08-07T03:48:43;12.68;;;4.72;;
19867;SDS011;10096;51.112;6.776;2023-08-07T03:51:10;8.55;;;4.60;;
19867;SDS011;10096;51.112;6.776;2023-08-07T03:53:37;12.88;;;4.85;;
19867;SDS011;10096;51.112;6.776;2023-08-07T03:56:06;14.07;;;5.60;;
19867;SDS011;10096;51.112;6.776;2023-08-07T03:58:33;10.95;;;3.83;;
19867;SDS011;10096;51.112;6.776;2023-08-07T04:01:00;9.95;;;3.83;;
19867;SDS011;10096;51.112;6.776;2023-08-07T04:03:27;7.88;;;4.07;;
19867;SDS011;10096;51.112;6.776;2023-08-07T04:05:55;9.95;;;3.97;;
19867;SDS011;10096;51.112;6.776;2023-08-07T04:08:22;7.32;;;3.83;;
19867;SDS011;10096;51.112;6.776;2023-08-07T04:10:57;8.90;;;3.80;;
19867;SDS011;10096;51.112;6.776;2023-08-07T04:13:26;9.85;;;3.97;;
19867;SDS011;10096;51.112;6.776;2023-08-07T04:15:54;8.48;;;4.20;;
19867;SDS011;10096;51.112;6.776;2023-08-07T04:18:21;8.55;;;4.00;;
19867;SDS011;10096;51.112;6.776;2023-08-07T04:20:48;6.85;;;3.50;;
19867;SDS011;10096;51.112;6.776;2023-08-07T04:23:17;8.57;;;3.88;;
19867;SDS011;10096;51.112;6.776;2023-08-07T04:25:44;9.38;;;4.28;;
19867;SDS011;10096;51.112;6.776;2023-08-07T04:28:11;9.60;;;5.20;;
19867;SDS011;10096;51.112;6.776;2023-08-07T04:30:40;12.23;;;4.05;;
19867;SDS011;10096;51.112;6.776;2023-08-07T04:33:08;9.20;;;4.15;;
19867;SDS011;10096;51.112;6.776;2023-08-07T04:35:34;10.20;;;4.50;;
19867;SDS011;10096;51.112;6.776;2023-08-07T04:38:02;7.95;;;4.13;;
19867;SDS011;10096;51.112;6.776;2023-08-07T04:40:29;12.95;;;4.70;;
19867;SDS011;10096;51.112;6.776;2023-08-07T04:42:56;10.25;;;4.80;;
19867;SDS011;10096;51.112;6.776;2023-08-07T04:45:23;9.88;;;5.07;;
19867;SDS011;10096;51.112;6.776;2023-08-07T04:47:52;11.65;;;4.75;;
19867;SDS011;10096;51.112;6.776;2023-08-07T04:50:19;9.63;;;5.85;;
19867;SDS011;10096;51.112;6.776;2023-08-07T04:52:47;9.88;;;4.85;;
19867;SDS011;10096;51.112;6.776;2023-08-07T04:55:14;9.50;;;5.68;;
19867;SDS011;10096;51.112;6.776;2023-08-07T04:57:42;9.50;;;4.43;;
19867;SDS011;10096;51.112;6.776;2023-08-07T05:00:09;8.73;;;5.75;;
19867;SDS011;10096;51.112;6.776;2023-08-07T05:02:37;10.05;;;4.90;;
19867;SDS011;10096;51.112;6.776;2023-08-07T05:05:06;9.27;;;5.45;;
19867;SDS011;10096;51.112;6.776;2023-08-07T05:07:34;7.57;;;4.50;;
19867;SDS011;10096;51.112;6.776;2023-08-07T05:10:01;7.68;;;4.80;;
19867;SDS011;10096;51.112;6.776;2023-08-07T05:12:28;12.00;;;4.90;;
19867;SDS011;10096;51.112;6.776;2023-08-07T05:14:56;9.73;;;5.00;;
19867;SDS011;10096;51.112;6.776;2023-08-07T05:17:22;9.70;;;4.75;;
19867;SDS011;10096;51.112;6.776;2023-08-07T05:19:49;12.25;;;5.65;;
19867;SDS011;10096;51.112;6.776;2023-08-07T05:22:18;7.28;;;4.15;;
19867;SDS011;10096;51.112;6.776;2023-08-07T05:24:45;9.00;;;5.85;;
19867;SDS011;10096;51.112;6.776;2023-08-07T05:27:13;10.07;;;4.30;;
19867;SDS011;10096;51.112;6.776;2023-08-07T05:29:40;11.02;;;4.90;;
19867;SDS011;10096;51.112;6.776;2023-08-07T05:32:09;8.23;;;4.90;;
19867;SDS011;10096;51.112;6.776;2023-08-07T05:34:38;8.45;;;4.30;;
19867;SDS011;10096;51.112;6.776;2023-08-07T05:37:05;10.13;;;4.82;;
19867;SDS011;10096;51.112;6.776;2023-08-07T05:39:35;10.38;;;4.80;;
19867;SDS011;10096;51.112;6.776;2023-08-07T05:42:02;6.70;;;4.43;;
19867;SDS011;10096;51.112;6.776;2023-08-07T05:44:30;6.68;;;4.45;;
19867;SDS011;10096;51.112;6.776;2023-08-07T05:46:57;9.90;;;4.20;;
19867;SDS011;10096;51.112;6.776;2023-08-07T05:49:25;8.88;;;4.03;;
19867;SDS011;10096;51.112;6.776;2023-08-07T05:51:53;7.70;;;4.55;;
19867;SDS011;10096;51.112;6.776;2023-08-07T05:54:20;6.55;;;4.53;;
19867;SDS011;10096;51.112;6.776;2023-08-07T05:56:49;9.90;;;4.20;;
19867;SDS011;10096;51.112;6.776;2023-08-07T05:59:16;8.05;;;4.53;;
19867;SDS011;10096;51.112;6.776;2023-08-07T06:01:44;9.55;;;4.28;;
19867;SDS011;10096;51.112;6.776;2023-08-07T06:04:11;6.63;;;5.10;;
19867;SDS011;10096;51.112;6.776;2023-08-07T06:06:38;9.18;;;4.03;;
19867;SDS011;10096;51.112;6.776;2023-08-07T06:09:07;8.40;;;4.70;;
19867;SDS011;10096;51.112;6.776;2023-08-07T06:11:34;8.32;;;4.60;;
19867;SDS011;10096;51.112;6.776;2023-08-07T06:14:03;8.32;;;4.10;;
19867;SDS011;10096;51.112;6.776;2023-08-07T06:16:30;9.60;;;5.55;;
19867;SDS011;10096;51.112;6.776;2023-08-07T06:18:58;8.70;;;4.53;;
19867;SDS011;10096;51.112;6.776;2023-08-07T06:21:25;7.28;;;4.10;;
19867;SDS011;10096;51.112;6.776;2023-08-07T06:23:55;10.98;;;4.95;;
19867;SDS011;10096;51.112;6.776;2023-08-07T06:26:30;9.40;;;4.43;;
19867;SDS011;10096;51.112;6.776;2023-08-07T06:28:57;7.57;;;4.60;;
19867;SDS011;10096;51.112;6.776;2023-08-07T06:31:28;8.65;;;4.65;;
19867;SDS011;10096;51.112;6.776;2023-08-07T06:33:59;7.95;;;4.38;;
19867;SDS011;10096;51.112;6.776;2023-08-07T06:36:26;10.43;;;4.25;;
19867;SDS011;10096;51.112;6.776;2023-08-07T06:38:54;12.45;;;5.07;;
19867;SDS011;10096;51.112;6.776;2023-08-07T06:41:23;10.68;;;5.00;;
19867;SDS011;10096;51.112;6.776;2023-08-07T06:43:50;8.70;;;4.90;;
19867;SDS011;10096;51.112;6.776;2023-08-07T06:46:17;6.95;;;4.22;;
19867;SDS011;10096;51.112;6.776;2023-08-07T06:48:50;9.25;;;4.53;;
19867;SDS011;10096;51.112;6.776;2023-08-07T06:51:18;10.75;;;4.57;;
19867;SDS011;10096;51.112;6.776;2023-08-07T06:53:45;9.30;;;4.32;;
19867;SDS011;10096;51.112;6.776;2023-08-07T06:56:12;8.20;;;4.80;;
19867;SDS011;10096;51.112;6.776;2023-08-07T06:58:39;7.72;;;4.53;;
19867;SDS011;10096;51.112;6.776;2023-08-07T07:01:06;6.90;;;4.57;;
19867;SDS011;10096;51.112;6.776;2023-08-07T07:03:33;9.50;;;4.88;;
19867;SDS011;10096;51.112;6.776;2023-08-07T07:06:02;12.02;;;5.10;;
19867;SDS011;10096;51.112;6.776;2023-08-07T07:08:30;11.15;;;4.78;;
19867;SDS011;10096;51.112;6.776;2023-08-07T07:10:57;8.85;;;5.20;;
19867;SDS011;10096;51.112;6.776;2023-08-07T07:13:25;5.68;;;4.53;;
19867;SDS011;10096;51.112;6.776;2023-08-07T07:15:53;10.32;;;4.60;;
19867;SDS011;10096;51.112;6.776;2023-08-07T07:18:20;11.50;;;4.93;;
19867;SDS011;10096;51.112;6.776;2023-08-07T07:20:47;6.38;;;4.13;;
19867;SDS011;10096;51.112;6.776;2023-08-07T07:23:15;11.70;;;5.18;;
19867;SDS011;10096;51.112;6.776;2023-08-07T07:25:42;9.20;;;4.75;;
19867;SDS011;10096;51.112;6.776;2023-08-07T07:28:09;6.63;;;4.78;;
19867;SDS011;10096;51.112;6.776;2023-08-07T07:30:38;11.20;;;5.45;;
19867;SDS011;10096;51.112;6.776;2023-08-07T07:33:05;10.45;;;5.40;;
19867;SDS011;10096;51.112;6.776;2023-08-07T07:35:37;8.50;;;4.72;;
19867;SDS011;10096;51.112;6.776;2023-08-07T07:38:07;9.48;;;5.47;;
19867;SDS011;10096;51.112;6.776;2023-08-07T07:40:36;7.78;;;4.90;;
19867;SDS011;10096;51.112;6.776;2023-08-07T07:43:03;8.38;;;4.80;;
19867;SDS011;10096;51.112;6.776;2023-08-07T07:45:30;9.15;;;5.78;;
19867;SDS011;10096;51.112;6.776;2023-08-07T07:48:02;9.25;;;5.03;;
19867;SDS011;10096;51.112;6.776;2023-08-07T07:50:31;7.72;;;5.07;;
19867;SDS011;10096;51.112;6.776;2023-08-07T07:52:58;9.00;;;4.85;;
19867;SDS011;10096;51.112;6.776;2023-08-07T07:55:25;9.32;;;4.60;;
19867;SDS011;10096;51.112;6.776;2023-08-07T07:57:53;10.27;;;4.95;;
19867;SDS011;10096;51.112;6.776;2023-08-07T08:00:20;5.93;;;4.63;;
19867;SDS011;10096;51.112;6.776;2023-08-07T08:02:51;11.70;;;4.65;;
19867;SDS011;10096;51.112;6.776;2023-08-07T08:05:18;11.45;;;5.13;;
19867;SDS011;10096;51.112;6.776;2023-08-07T08:07:49;7.72;;;4.55;;
19867;SDS011;10096;51.112;6.776;2023-08-07T08:10:16;6.65;;;4.28;;
19867;SDS011;10096;51.112;6.776;2023-08-07T08:12:45;10.18;;;4.68;;
19867;SDS011;10096;51.112;6.776;2023-08-07T08:15:14;9.95;;;4.93;;
19867;SDS011;10096;51.112;6.776;2023-08-07T08:17:41;8.20;;;5.07;;
19867;SDS011;10096;51.112;6.776;2023-08-07T08:20:08;7.32;;;4.35;;
19867;SDS011;10096;51.112;6.776;2023-08-07T08:22:36;6.82;;;3.88;;
19867;SDS011;10096;51.112;6.776;2023-08-07T08:25:03;7.30;;;4.45;;
19867;SDS011;10096;51.112;6.776;2023-08-07T08:27:31;11.77;;;4.90;;
19867;SDS011;10096;51.112;6.776;2023-08-07T08:29:58;9.35;;;4.85;;
19867;SDS011;10096;51.112;6.776;2023-08-07T08:32:26;8.23;;;5.22;;
19867;SDS011;10096;51.112;6.776;2023-08-07T08:34:54;10.63;;;5.43;;
19867;SDS011;10096;51.112;6.776;2023-08-07T08:37:21;8.63;;;4.47;;
19867;SDS011;10096;51.112;6.776;2023-08-07T08:39:48;5.22;;;4.15;;
19867;SDS011;10096;51.112;6.776;2023-08-07T08:42:15;10.18;;;4.43;;
19867;SDS011;10096;51.112;6.776;2023-08-07T08:44:43;10.77;;;4.88;;
19867;SDS011;10096;51.112;6.776;2023-08-07T08:47:16;9.38;;;4.60;;
19867;SDS011;10096;51.112;6.776;2023-08-07T08:49:47;10.32;;;4.40;;
19867;SDS011;10096;51.112;6.776;2023-08-07T08:52:20;9.63;;;4.70;;
19867;SDS011;10096;51.112;6.776;2023-08-07T08:54:47;7.45;;;4.25;;
19867;SDS011;10096;51.112;6.776;2023-08-07T08:57:15;9.65;;;4.90;;
19867;SDS011;10096;51.112;6.776;2023-08-07T08:59:42;5.82;;;3.78;;
19867;SDS011;10096;51.112;6.776;2023-08-07T09:02:10;7.68;;;4.00;;
19867;SDS011;10096;51.112;6.776;2023-08-07T09:04:37;7.82;;;4.43;;
19867;SDS011;10096;51.112;6.776;2023-08-07T09:07:10;6.63;;;3.70;;
19867;SDS011;10096;51.112;6.776;2023-08-07T09:09:38;8.13;;;4.53;;
19867;SDS011;10096;51.112;6.776;2023-08-07T09:12:07;8.13;;;4.43;;
19867;SDS011;10096;51.112;6.776;2023-08-07T09:14:36;12.52;;;5.20;;
19867;SDS011;10096;51.112;6.776;2023-08-07T09:17:06;8.15;;;4.97;;
19867;SDS011;10096;51.112;6.776;2023-08-07T09:19:34;11.10;;;5.38;;
19867;SDS011;10096;51.112;6.776;2023-08-07T09:22:02;8.88;;;4.38;;
19867;SDS011;10096;51.112;6.776;2023-08-07T09:24:31;9.25;;;4.22;;
19867;SDS011;10096;51.112;6.776;2023-08-07T09:26:58;8.18;;;3.95;;
19867;SDS011;10096;51.112;6.776;2023-08-07T09:29:26;10.43;;;4.50;;
19867;SDS011;10096;51.112;6.776;2023-08-07T09:31:53;7.35;;;4.30;;
19867;SDS011;10096;51.112;6.776;2023-08-07T09:34:21;8.93;;;4.00;;
19867;SDS011;10096;51.112;6.776;2023-08-07T09:36:48;8.50;;;3.85;;
19867;SDS011;10096;51.112;6.776;2023-08-07T09:39:15;6.20;;;3.30;;
19867;SDS011;10096;51.112;6.776;2023-08-07T09:41:44;7.00;;;3.58;;
19867;SDS011;10096;51.112;6.776;2023-08-07T09:44:17;7.30;;;2.97;;
19867;SDS011;10096;51.112;6.776;2023-08-07T09:46:44;5.60;;;3.22;;
19867;SDS011;10096;51.112;6.776;2023-08-07T09:49:11;7.78;;;3.60;;
19867;SDS011;10096;51.112;6.776;2023-08-07T09:51:42;4.18;;;2.60;;
19867;SDS011;10096;51.112;6.776;2023-08-07T09:54:09;5.00;;;3.00;;
19867;SDS011;10096;51.112;6.776;2023-08-07T09:56:37;5.18;;;2.50;;
19867;SDS011;10096;51.112;6.776;2023-08-07T09:59:06;4.68;;;3.10;;
19867;SDS011;10096;51.112;6.776;2023-08-07T10:01:35;6.60;;;3.30;;
19867;SDS011;10096;51.112;6.776;2023-08-07T10:04:04;5.15;;;3.05;;
19867;SDS011;10096;51.112;6.776;2023-08-07T10:06:32;5.75;;;3.53;;
19867;SDS011;10096;51.112;6.776;2023-08-07T10:09:01;7.65;;;3.30;;
19867;SDS011;10096;51.112;6.776;2023-08-07T10:11:28;3.63;;;2.80;;
19867;SDS011;10096;51.112;6.776;2023-08-07T10:13:56;4.82;;;3.33;;
19867;SDS011;10096;51.112;6.776;2023-08-07T10:16:25;7.00;;;3.63;;
19867;SDS011;10096;51.112;6.776;2023-08-07T10:18:53;8.65;;;3.20;;
19867;SDS011;10096;51.112;6.776;2023-08-07T10:21:20;8.07;;;3.30;;
19867;SDS011;10096;51.112;6.776;2023-08-07T10:23:48;6.30;;;3.50;;
19867;SDS011;10096;51.112;6.776;2023-08-07T10:26:19;5.00;;;2.58;;
19867;SDS011;10096;51.112;6.776;2023-08-07T10:28:48;7.15;;;3.17;;
19867;SDS011;10096;51.112;6.776;2023-08-07T10:31:17;4.68;;;2.70;;
19867;SDS011;10096;51.112;6.776;2023-08-07T10:33:47;5.18;;;2.88;;
19867;SDS011;10096;51.112;6.776;2023-08-07T10:36:15;5.70;;;2.67;;
19867;SDS011;10096;51.112;6.776;2023-08-07T10:38:48;7.00;;;3.28;;
19867;SDS011;10096;51.112;6.776;2023-08-07T10:41:17;6.97;;;2.90;;
19867;SDS011;10096;51.112;6.776;2023-08-07T10:43:45;3.72;;;2.65;;
19867;SDS011;10096;51.112;6.776;2023-08-07T10:46:13;5.25;;;2.92;;
19867;SDS011;10096;51.112;6.776;2023-08-07T10:48:44;4.30;;;2.33;;
19867;SDS011;10096;51.112;6.776;2023-08-07T10:51:15;4.35;;;2.90;;
19867;SDS011;10096;51.112;6.776;2023-08-07T10:53:43;3.17;;;2.85;;
19867;SDS011;10096;51.112;6.776;2023-08-07T10:56:15;4.50;;;3.13;;
19867;SDS011;10096;51.112;6.776;2023-08-07T10:58:47;5.30;;;2.50;;
19867;SDS011;10096;51.112;6.776;2023-08-07T11:01:18;5.15;;;2.83;;
19867;SDS011;10096;51.112;6.776;2023-08-07T11:03:49;4.35;;;2.55;;
19867;SDS011;10096;51.112;6.776;2023-08-07T11:06:21;4.70;;;3.00;;
19867;SDS011;10096;51.112;6.776;2023-08-07T11:08:49;4.68;;;2.47;;
19867;SDS011;10096;51.112;6.776;2023-08-07T11:11:17;3.50;;;3.15;;
19867;SDS011;10096;51.112;6.776;2023-08-07T11:13:44;2.50;;;2.30;;
19867;SDS011;10096;51.112;6.776;2023-08-07T11:16:11;4.28;;;2.50;;
19867;SDS011;10096;51.112;6.776;2023-08-07T11:18:39;4.55;;;2.42;;
19867;SDS011;10096;51.112;6.776;2023-08-07T11:21:07;4.00;;;3.10;;
19867;SDS011;10096;51.112;6.776;2023-08-07T11:24:04;5.10;;;3.05;;
19867;SDS011;10096;51.112;6.776;2023-08-07T11:30:00;5.65;;;3.22;;
19867;SDS011;10096;51.112;6.776;2023-08-07T11:32:30;5.93;;;2.90;;
19867;SDS011;10096;51.112;6.776;2023-08-07T11:34:57;6.10;;;2.75;;
19867;SDS011;10096;51.112;6.776;2023-08-07T11:37:24;5.00;;;2.75;;
19867;SDS011;10096;51.112;6.776;2023-08-07T11:39:58;4.85;;;3.00;;
19867;SDS011;10096;51.112;6.776;2023-08-07T11:42:27;5.47;;;2.72;;
19867;SDS011;10096;51.112;6.776;2023-08-07T11:44:54;4.65;;;2.85;;
19867;SDS011;10096;51.112;6.776;2023-08-07T11:47:23;3.40;;;2.53;;
19867;SDS011;10096;51.112;6.776;2023-08-07T11:49:51;4.18;;;2.78;;
19867;SDS011;10096;51.112;6.776;2023-08-07T11:52:22;5.72;;;2.92;;
19867;SDS011;10096;51.112;6.776;2023-08-07T11:54:53;3.55;;;3.22;;
19867;SDS011;10096;51.112;6.776;2023-08-07T11:57:20;5.10;;;3.00;;
19867;SDS011;10096;51.112;6.776;2023-08-07T11:59:49;5.30;;;3.42;;
19867;SDS011;10096;51.112;6.776;2023-08-07T12:02:22;3.90;;;2.65;;
19867;SDS011;10096;51.112;6.776;2023-08-07T12:04:50;3.97;;;2.72;;
19867;SDS011;10096;51.112;6.776;2023-08-07T12:07:24;4.15;;;2.80;;
19867;SDS011;10096;51.112;6.776;2023-08-07T12:09:54;5.25;;;2.80;;
19867;SDS011;10096;51.112;6.776;2023-08-07T12:12:23;5.75;;;3.30;;
19867;SDS011;10096;51.112;6.776;2023-08-07T12:14:52;4.40;;;2.72;;
19867;SDS011;10096;51.112;6.776;2023-08-07T12:17:21;4.90;;;2.83;;
19867;SDS011;10096;51.112;6.776;2023-08-07T12:19:49;5.20;;;2.35;;
19867;SDS011;10096;51.112;6.776;2023-08-07T12:22:19;3.80;;;2.83;;
19867;SDS011;10096;51.112;6.776;2023-08-07T12:24:47;4.00;;;2.83;;
19867;SDS011;10096;51.112;6.776;2023-08-07T12:27:17;3.80;;;2.60;;
19867;SDS011;10096;51.112;6.776;2023-08-07T12:29:44;4.95;;;3.25;;
19867;SDS011;10096;51.112;6.776;2023-08-07T12:32:11;2.75;;;2.30;;
19867;SDS011;10096;51.112;6.776;2023-08-07T12:34:39;4.75;;;2.42;;
19867;SDS011;10096;51.112;6.776;2023-08-07T12:37:06;4.50;;;3.00;;
19867;SDS011;10096;51.112;6.776;2023-08-07T12:39:44;3.25;;;2.30;;
19867;SDS011;10096;51.112;6.776;2023-08-07T12:42:11;3.10;;;2.78;;
19867;SDS011;10096;51.112;6.776;2023-08-07T12:44:39;3.15;;;2.78;;
19867;SDS011;10096;51.112;6.776;2023-08-07T12:47:08;4.65;;;2.85;;
19867;SDS011;10096;51.112;6.776;2023-08-07T12:49:35;4.13;;;2.80;;
19867;SDS011;10096;51.112;6.776;2023-08-07T12:52:02;5.30;;;2.70;;
19867;SDS011;10096;51.112;6.776;2023-08-07T12:54:30;4.63;;;3.03;;
19867;SDS011;10096;51.112;6.776;2023-08-07T12:56:57;3.72;;;2.70;;
19867;SDS011;10096;51.112;6.776;2023-08-07T12:59:24;4.85;;;2.58;;
19867;SDS011;10096;51.112;6.776;2023-08-07T13:01:53;5.20;;;2.60;;
19867;SDS011;10096;51.112;6.776;2023-08-07T13:04:20;9.05;;;5.22;;
19867;SDS011;10096;51.112;6.776;2023-08-07T13:06:48;6.32;;;3.20;;
19867;SDS011;10096;51.112;6.776;2023-08-07T13:09:15;4.65;;;2.45;;
19867;SDS011;10096;51.112;6.776;2023-08-07T13:11:42;3.70;;;2.85;;
19867;SDS011;10096;51.112;6.776;2023-08-07T13:14:09;5.07;;;3.17;;
19867;SDS011;10096;51.112;6.776;2023-08-07T13:16:36;2.85;;;2.50;;
19867;SDS011;10096;51.112;6.776;2023-08-07T13:19:05;3.58;;;3.00;;
19867;SDS011;10096;51.112;6.776;2023-08-07T13:21:32;5.63;;;3.15;;
19867;SDS011;10096;51.112;6.776;2023-08-07T13:24:00;4.45;;;2.75;;
19867;SDS011;10096;51.112;6.776;2023-08-07T13:26:26;3.50;;;2.83;;
19867;SDS011;10096;51.112;6.776;2023-08-07T13:28:53;6.40;;;3.00;;
19867;SDS011;10096;51.112;6.776;2023-08-07T13:31:21;4.72;;;3.08;;
19867;SDS011;10096;51.112;6.776;2023-08-07T13:33:48;3.22;;;2.33;;
19867;SDS011;10096;51.112;6.776;2023-08-07T13:36:22;3.15;;;2.63;;
19867;SDS011;10096;51.112;6.776;2023-08-07T13:38:49;6.80;;;3.85;;
19867;SDS011;10096;51.112;6.776;2023-08-07T13:41:17;6.05;;;3.10;;
19867;SDS011;10096;51.112;6.776;2023-08-07T13:43:43;4.72;;;2.97;;
19867;SDS011;10096;51.112;6.776;2023-08-07T13:46:11;3.95;;;3.40;;
19867;SDS011;10096;51.112;6.776;2023-08-07T13:48:50;5.78;;;3.28;;
19867;SDS011;10096;51.112;6.776;2023-08-07T13:54:31;9.10;;;4.38;;
19867;SDS011;10096;51.112;6.776;2023-08-07T13:56:59;4.30;;;2.92;;
19867;SDS011;10096;51.112;6.776;2023-08-07T13:59:26;6.25;;;3.13;;
19867;SDS011;10096;51.112;6.776;2023-08-07T14:01:57;8.55;;;3.85;;
19867;SDS011;10096;51.112;6.776;2023-08-07T14:04:24;4.13;;;3.00;;
19867;SDS011;10096;51.112;6.776;2023-08-07T14:07:26;5.25;;;3.17;;
19867;SDS011;10096;51.112;6.776;2023-08-07T14:09:50;5.43;;;3.30;;
19867;SDS011;10096;51.112;6.776;2023-08-07T14:12:20;5.28;;;2.80;;
19867;SDS011;10096;51.112;6.776;2023-08-07T14:14:53;7.43;;;3.85;;
19867;SDS011;10096;51.112;6.776;2023-08-07T14:17:20;5.22;;;3.53;;
19867;SDS011;10096;51.112;6.776;2023-08-07T14:19:47;9.50;;;6.68;;
19867;SDS011;10096;51.112;6.776;2023-08-07T14:22:14;5.25;;;3.53;;
19867;SDS011;10096;51.112;6.776;2023-08-07T14:27:36;3.60;;;3.15;;
19867;SDS011;10096;51.112;6.776;2023-08-07T14:30:06;4.97;;;3.00;;
19867;SDS011;10096;51.112;6.776;2023-08-07T14:32:34;5.40;;;3.35;;
19867;SDS011;10096;51.112;6.776;2023-08-07T14:35:14;5.05;;;3.25;;
19867;SDS011;10096;51.112;6.776;2023-08-07T14:37:43;5.75;;;4.05;;
19867;SDS011;10096;51.112;6.776;2023-08-07T14:40:14;6.25;;;3.40;;
19867;SDS011;10096;51.112;6.776;2023-08-07T14:42:41;4.97;;;3.38;;
19867;SDS011;10096;51.112;6.776;2023-08-07T14:45:09;3.92;;;3.10;;
19867;SDS011;10096;51.112;6.776;2023-08-07T14:47:37;5.88;;;3.08;;
19867;SDS011;10096;51.112;6.776;2023-08-07T14:50:05;5.78;;;2.75;;
19867;SDS011;10096;51.112;6.776;2023-08-07T14:52:32;6.35;;;3.88;;
19867;SDS011;10096;51.112;6.776;2023-08-07T14:55:02;3.80;;;3.25;;
19867;SDS011;10096;51.112;6.776;2023-08-07T14:57:31;5.60;;;3.45;;
19867;SDS011;10096;51.112;6.776;2023-08-07T15:00:01;4.45;;;3.33;;
19867;SDS011;10096;51.112;6.776;2023-08-07T15:02:30;4.85;;;3.10;;